Time;durP1;ratioP1;P1;durP2;ratioP2;P2;SDS_P1;SDS_P2;PMS_P1;PMS_P2;Temp;Humidity;BMP_temperature;BMP_pressure;BME280_temperature;BME280_humidity;BME280_pressure;Samples;Min_cycle;Max_cycle;Signal;HPM_P1;HPM_P2
2021/03/21 00:00:48;;;;;;;3.97;3.58;;;7.00;97.20;;;;;;5067047;28;20589;-37
2021/03/21 00:03:15;;;;;;;4.85;4.18;;;7.00;97.20;;;;;;5066503;28;20105;-38
2021/03/21 00:05:41;;;;;;;4.80;4.10;;;7.00;97.20;;;;;;5066135;28;20041;-39
2021/03/21 00:08:23;;;;;;;5.35;4.30;;;7.00;97.20;;;;;;5066531;28;20488;-37
2021/03/21 00:10:54;;;;;;;5.37;4.87;;;7.00;97.30;;;;;;5064617;28;20029;-37
2021/03/21 00:13:21;;;;;;;5.57;5.03;;;7.00;97.40;;;;;;5065546;28;20081;-36
2021/03/21 00:15:47;;;;;;;5.32;4.80;;;7.00;97.50;;;;;;5066346;28;20086;-38
2021/03/21 00:18:14;;;;;;;5.93;5.30;;;6.90;97.40;;;;;;5066644;28;20395;-39
2021/03/21 00:20:40;;;;;;;5.93;5.22;;;6.90;97.60;;;;;;5066021;28;20048;-34
2021/03/21 00:23:06;;;;;;;5.50;4.88;;;6.90;97.60;;;;;;5066369;28;20028;-37
2021/03/21 00:25:34;;;;;;;7.00;5.63;;;6.90;97.50;;;;;;5065180;28;20031;-37
2021/03/21 00:28:00;;;;;;;6.32;5.68;;;6.90;97.60;;;;;;5066204;28;20036;-39
2021/03/21 00:30:34;;;;;;;5.85;5.30;;;6.90;97.60;;;;;;5065948;28;20678;-38
2021/03/21 00:33:00;;;;;;;6.13;5.32;;;6.90;97.60;;;;;;5046176;28;20541;-39
2021/03/21 00:35:26;;;;;;;5.90;5.20;;;6.90;97.50;;;;;;5059697;28;20022;-34
2021/03/21 00:38:00;;;;;;;6.10;5.45;;;7.00;97.50;;;;;;5066102;28;20020;-37
2021/03/21 00:40:27;;;;;;;7.65;6.13;;;7.00;97.70;;;;;;5065278;28;20033;-35
2021/03/21 00:42:56;;;;;;;7.55;5.75;;;6.90;97.70;;;;;;5065782;28;20103;-35
2021/03/21 00:45:23;;;;;;;6.00;5.10;;;6.90;97.80;;;;;;5065729;28;20025;-37
2021/03/21 00:47:49;;;;;;;6.15;5.47;;;6.90;97.70;;;;;;5065507;28;20123;-37
2021/03/21 00:50:35;;;;;;;6.55;5.72;;;6.80;97.80;;;;;;5066085;28;20123;-37
2021/03/21 00:53:01;;;;;;;5.45;4.82;;;6.90;97.80;;;;;;5065784;28;20036;-37
2021/03/21 00:55:27;;;;;;;7.63;5.00;;;6.90;97.80;;;;;;5064995;28;20059;-38
2021/03/21 00:57:53;;;;;;;5.68;4.80;;;6.80;97.80;;;;;;5066113;28;20029;-37
2021/03/21 01:00:38;;;;;;;4.32;3.92;;;6.80;98.00;;;;;;5065047;28;20024;-36
2021/03/21 01:03:03;;;;;;;5.20;4.70;;;6.80;98.00;;;;;;5065593;28;20468;-36
2021/03/21 01:05:34;;;;;;;4.72;3.90;;;6.80;97.90;;;;;;5065861;28;20046;-38
2021/03/21 01:08:00;;;;;;;4.38;3.72;;;6.80;97.90;;;;;;5065043;28;20578;-38
2021/03/21 01:10:29;;;;;;;4.80;3.42;;;6.80;97.90;;;;;;5065376;28;20044;-37
2021/03/21 01:12:58;;;;;;;4.55;3.60;;;6.80;97.80;;;;;;5065737;28;20031;-38
2021/03/21 01:15:29;;;;;;;3.35;2.85;;;6.80;98.00;;;;;;5065045;28;20140;-37
2021/03/21 01:17:56;;;;;;;3.17;2.88;;;6.80;97.90;;;;;;5065693;28;20392;-38
2021/03/21 01:20:26;;;;;;;2.78;2.55;;;6.80;97.90;;;;;;5064892;28;20043;-37
2021/03/21 01:22:51;;;;;;;2.63;2.42;;;6.80;97.90;;;;;;5065090;28;20123;-38
2021/03/21 01:25:35;;;;;;;3.78;2.30;;;6.80;97.80;;;;;;5065178;28;20040;-38
2021/03/21 01:28:01;;;;;;;3.40;2.60;;;6.90;97.90;;;;;;5064452;28;20443;-39
2021/03/21 01:30:27;;;;;;;2.53;2.30;;;6.90;97.80;;;;;;5065191;28;20020;-38
2021/03/21 01:32:53;;;;;;;4.45;2.20;;;6.90;97.80;;;;;;5064438;28;20498;-36
2021/03/21 01:35:19;;;;;;;2.60;2.15;;;6.90;97.80;;;;;;5065038;28;20021;-35
2021/03/21 01:37:45;;;;;;;3.58;2.40;;;6.80;97.80;;;;;;5064651;28;20020;-36
2021/03/21 01:40:16;;;;;;;2.47;2.15;;;6.80;97.80;;;;;;5064751;28;20036;-34
2021/03/21 01:42:45;;;;;;;2.67;2.08;;;6.80;97.70;;;;;;5064569;28;20036;-36
2021/03/21 01:45:31;;;;;;;2.78;2.00;;;6.80;97.70;;;;;;5064597;28;20134;-36
2021/03/21 01:47:58;;;;;;;2.33;1.90;;;6.90;97.70;;;;;;5064805;28;20037;-35
2021/03/21 01:50:45;;;;;;;1.92;1.80;;;6.90;97.80;;;;;;5064221;28;20036;-37
2021/03/21 01:53:12;;;;;;;2.03;1.83;;;6.80;97.80;;;;;;5064520;28;20537;-37
2021/03/21 01:55:41;;;;;;;1.55;1.45;;;6.80;97.70;;;;;;5064138;28;20505;-37
2021/03/21 01:58:09;;;;;;;2.22;1.83;;;6.80;98.00;;;;;;5063591;28;20021;-37
2021/03/21 02:00:37;;;;;;;2.95;1.80;;;6.80;97.70;;;;;;5064658;28;20048;-37
2021/03/21 02:03:03;;;;;;;1.92;1.73;;;6.90;97.80;;;;;;5064116;28;20029;-35
2021/03/21 02:05:29;;;;;;;1.88;1.70;;;6.80;97.70;;;;;;5064294;28;20028;-38
2021/03/21 02:08:20;;;;;;;2.22;1.90;;;6.80;97.80;;;;;;5064114;28;20124;-36
2021/03/21 02:11:04;;;;;;;1.90;1.80;;;6.80;97.80;;;;;;5064776;28;20059;-38
2021/03/21 02:13:55;;;;;;;4.10;2.20;;;6.80;97.80;;;;;;5064528;28;20100;-37
2021/03/21 02:16:55;;;;;;;2.40;2.20;;;6.80;97.90;;;;;;5064178;28;20430;-38
2021/03/21 02:19:30;;;;;;;3.08;2.10;;;6.80;97.90;;;;;;5049966;28;20056;-38
2021/03/21 02:22:01;;;;;;;2.67;2.47;;;6.80;98.20;;;;;;5064685;28;20031;-38
2021/03/21 02:24:42;;;;;;;2.90;2.60;;;6.80;98.00;;;;;;5064597;28;20027;-38
2021/03/21 02:27:29;;;;;;;3.30;3.00;;;6.80;98.10;;;;;;5063799;28;20037;-36
2021/03/21 02:30:23;;;;;;;3.97;3.00;;;6.80;98.30;;;;;;5064223;28;20124;-36
2021/03/21 02:32:53;;;;;;;;;;;6.70;98.20;;;;;;5064156;28;20074;-39
2021/03/21 02:35:44;;;;;;;3.28;2.97;;;6.80;98.20;;;;;;5060575;28;19954;-39
2021/03/21 02:38:17;;;;;;;4.15;3.28;;;6.70;98.10;;;;;;5064057;28;20120;-38
2021/03/21 02:40:47;;;;;;;3.42;3.13;;;6.70;98.10;;;;;;5063708;28;20016;-38
2021/03/21 02:43:38;;;;;;;3.60;3.30;;;6.80;98.10;;;;;;5063654;28;20032;-37
2021/03/21 02:46:14;;;;;;;3.97;3.67;;;6.80;98.10;;;;;;5064119;28;20031;-37
2021/03/21 02:48:48;;;;;;;3.72;3.22;;;6.80;98.00;;;;;;5066903;28;20132;-35
2021/03/21 02:51:36;;;;;;;4.63;4.22;;;6.80;98.00;;;;;;5067887;28;20020;-37
2021/03/21 02:54:24;;;;;;;4.53;4.13;;;6.80;98.00;;;;;;5067306;28;20464;-38
2021/03/21 02:56:56;;;;;;;4.85;4.45;;;6.80;98.10;;;;;;5067688;28;20088;-39
2021/03/21 02:59:30;;;;;;;4.38;4.00;;;6.80;98.10;;;;;;5067404;28;20544;-37
2021/03/21 03:02:02;;;;;;;4.57;4.18;;;6.80;98.00;;;;;;5067645;28;20637;-36
2021/03/21 03:04:35;;;;;;;5.00;4.53;;;6.80;98.00;;;;;;5067972;28;20291;-36
2021/03/21 03:07:20;;;;;;;5.30;4.80;;;6.90;98.10;;;;;;5067965;28;20043;-39
2021/03/21 03:10:04;;;;;;;5.93;5.22;;;6.90;98.10;;;;;;5067440;28;20032;-38
2021/03/21 03:12:34;;;;;;;6.68;5.63;;;6.90;98.00;;;;;;5067852;28;20033;-40
2021/03/21 03:15:11;;;;;;;7.05;5.47;;;6.90;98.20;;;;;;5067378;28;20119;-39
2021/03/21 03:17:43;;;;;;;5.78;5.18;;;6.90;98.10;;;;;;5067663;28;20134;-37
2021/03/21 03:20:33;;;;;;;5.78;5.28;;;6.90;98.00;;;;;;5067133;28;20459;-38
2021/03/21 03:23:10;;;;;;;6.55;5.50;;;6.90;98.00;;;;;;5067234;28;20081;-39
2021/03/21 03:25:41;;;;;;;6.28;5.68;;;6.90;98.10;;;;;;5067400;28;20029;-38
2021/03/21 03:28:31;;;;;;;6.95;5.75;;;6.80;98.20;;;;;;5067181;28;20040;-38
2021/03/21 03:31:23;;;;;;;6.22;5.57;;;6.80;98.20;;;;;;5067104;28;20636;-37
2021/03/21 03:33:49;;;;;;;6.00;5.00;;;6.80;98.20;;;;;;5067407;28;20043;-39
2021/03/21 03:36:17;;;;;;;8.43;6.63;;;6.80;98.30;;;;;;5066654;28;20329;-38
2021/03/21 03:38:47;;;;;;;7.05;6.35;;;6.80;98.80;;;;;;5066837;28;20469;-38
2021/03/21 03:41:40;;;;;;;9.50;7.25;;;6.80;98.60;;;;;;5066825;28;20028;-36
2021/03/21 03:44:34;;;;;;;7.18;6.47;;;6.80;98.50;;;;;;5066530;28;20066;-36
2021/03/21 03:47:13;;;;;;;7.57;6.78;;;6.80;98.70;;;;;;5066822;28;20029;-39
2021/03/21 03:49:58;;;;;;;7.55;6.75;;;6.80;98.60;;;;;;5046565;28;20040;-37
2021/03/21 03:52:49;;;;;;;9.52;7.22;;;6.80;99.00;;;;;;5064425;28;20472;-38
2021/03/21 03:55:23;;;;;;;8.00;6.78;;;6.80;98.60;;;;;;5066747;28;20032;-39
2021/03/21 03:57:59;;;;;;;9.75;7.78;;;6.80;98.60;;;;;;5066158;28;20383;-38
2021/03/21 04:00:34;;;;;;;8.48;7.57;;;6.90;98.60;;;;;;5065419;28;20039;-39
2021/03/21 04:03:15;;;;;;;8.35;7.50;;;6.80;98.60;;;;;;5066335;28;20021;-34
2021/03/21 04:06:04;;;;;;;12.05;8.95;;;6.90;98.60;;;;;;5066622;28;20075;-36
2021/03/21 04:08:48;;;;;;;11.35;9.52;;;6.90;99.10;;;;;;5063722;28;20080;-36
2021/03/21 04:11:23;;;;;;;12.15;8.20;;;6.80;99.30;;;;;;5065599;28;20042;-39
2021/03/21 04:14:01;;;;;;;14.20;9.45;;;6.80;99.20;;;;;;5066659;28;20431;-36
2021/03/21 04:16:36;;;;;;;12.63;9.02;;;6.80;99.10;;;;;;5066465;28;20096;-38
2021/03/21 04:19:06;;;;;;;9.15;8.18;;;6.90;99.10;;;;;;5066029;28;20033;-37
2021/03/21 04:21:45;;;;;;;10.77;9.07;;;6.90;99.00;;;;;;5066212;28;20352;-39
2021/03/21 04:24:27;;;;;;;10.68;8.85;;;6.90;99.10;;;;;;5066125;28;20043;-38
2021/03/21 04:27:06;;;;;;;12.32;9.25;;;6.90;99.10;;;;;;5065693;28;20013;-40
2021/03/21 04:29:43;;;;;;;10.60;8.82;;;6.90;99.30;;;;;;5066316;28;20033;-37
2021/03/21 04:32:13;;;;;;;14.18;10.18;;;6.90;99.20;;;;;;5065239;28;20028;-39
2021/03/21 04:34:43;;;;;;;12.32;9.45;;;6.90;99.40;;;;;;5065808;28;20094;-39
2021/03/21 04:37:12;;;;;;;12.70;10.13;;;6.90;99.30;;;;;;5065618;28;20132;-38
2021/03/21 04:39:41;;;;;;;11.98;9.88;;;6.90;99.50;;;;;;5064958;28;20035;-37
2021/03/21 04:42:10;;;;;;;11.88;9.57;;;6.90;99.40;;;;;;5065324;28;20032;-38
2021/03/21 04:44:46;;;;;;;13.52;10.27;;;6.90;99.50;;;;;;5065626;28;20029;-37
2021/03/21 04:47:24;;;;;;;13.68;10.30;;;6.90;99.60;;;;;;5064952;28;20058;-38
2021/03/21 04:49:53;;;;;;;13.90;10.38;;;6.90;99.90;;;;;;5062393;28;20161;-38
2021/03/21 04:52:31;;;;;;;12.77;10.10;;;6.90;99.50;;;;;;5065424;28;20360;-38
2021/03/21 04:54:57;;;;;;;13.93;9.88;;;6.90;99.50;;;;;;5065293;28;20440;-36
2021/03/21 04:57:41;;;;;;;13.88;9.85;;;6.90;99.40;;;;;;5064974;28;20143;-36
2021/03/21 05:00:29;;;;;;;12.75;10.02;;;7.00;99.40;;;;;;5064909;28;20028;-38
2021/03/21 05:03:03;;;;;;;11.02;8.20;;;7.00;99.30;;;;;;5065614;28;20131;-37
2021/03/21 05:05:38;;;;;;;9.75;7.68;;;7.00;99.30;;;;;;5065357;28;20112;-38
2021/03/21 05:08:16;;;;;;;11.82;8.27;;;7.10;99.20;;;;;;5064729;28;20044;-37
2021/03/21 05:10:46;;;;;;;11.13;8.00;;;7.10;99.10;;;;;;5064957;28;20039;-35
2021/03/21 05:13:32;;;;;;;10.95;8.13;;;7.10;99.10;;;;;;5064740;28;20150;-36
2021/03/21 05:16:14;;;;;;;11.80;8.82;;;7.10;99.00;;;;;;5064515;28;20020;-37
2021/03/21 05:19:01;;;;;;;16.25;9.70;;;7.20;99.10;;;;;;5065193;28;20056;-37
2021/03/21 05:21:40;;;;;;;14.05;9.25;;;7.10;99.00;;;;;;5055040;28;20051;-35
2021/03/21 05:24:15;;;;;;;12.45;8.07;;;7.10;98.90;;;;;;5065112;28;20034;-37
2021/03/21 05:26:50;;;;;;;10.70;7.78;;;7.10;98.90;;;;;;5064873;28;20029;-35
2021/03/21 05:29:41;;;;;;;11.40;7.80;;;7.10;98.90;;;;;;5064183;28;20515;-34
2021/03/21 05:32:08;;;;;;;15.20;8.10;;;7.10;98.70;;;;;;5064599;28;20353;-38
2021/03/21 05:34:34;;;;;;;13.35;7.95;;;7.10;98.60;;;;;;5064581;28;20040;-38
2021/03/21 05:37:10;;;;;;;11.52;7.15;;;7.10;98.70;;;;;;5064561;28;20056;-35
2021/03/21 05:39:52;;;;;;;12.80;7.13;;;7.10;98.60;;;;;;5064277;28;20799;-35
2021/03/21 05:42:58;;;;;;;11.98;7.38;;;7.10;98.60;;;;;;5064487;28;20046;-35
2021/03/21 05:46:01;;;;;;;14.93;6.68;;;7.10;98.50;;;;;;5064858;28;20028;-38
2021/03/21 05:48:53;;;;;;;11.40;5.82;;;7.10;98.10;;;;;;5064624;28;20349;-36
2021/03/21 05:51:44;;;;;;;10.90;5.38;;;7.10;98.20;;;;;;5063504;28;20519;-36
2021/03/21 05:54:35;;;;;;;8.63;4.38;;;7.00;97.80;;;;;;5064486;28;20030;-36
2021/03/21 05:57:06;;;;;;;8.57;4.07;;;7.00;97.80;;;;;;5064046;28;20469;-36
2021/03/21 06:00:09;;;;;;;7.22;3.55;;;7.10;97.80;;;;;;5064341;28;20077;-38
2021/03/21 06:02:43;;;;;;;9.40;3.30;;;7.10;97.50;;;;;;5064255;28;20471;-36
2021/03/21 06:05:42;;;;;;;9.40;3.28;;;7.10;97.30;;;;;;5063971;28;20040;-38
2021/03/21 06:08:30;;;;;;;8.07;3.03;;;7.10;97.30;;;;;;5055699;28;20044;-38
2021/03/21 06:11:11;;;;;;;5.93;2.75;;;7.10;97.40;;;;;;5064406;28;20354;-39
2021/03/21 06:13:56;;;;;;;8.20;3.30;;;7.10;97.50;;;;;;5064526;28;20078;-39
2021/03/21 06:17:02;;;;;;;9.50;3.05;;;7.10;97.40;;;;;;5064400;28;20039;-37
2021/03/21 06:19:54;;;;;;;12.32;3.08;;;7.10;97.50;;;;;;5064258;28;20059;-37
2021/03/21 06:22:37;;;;;;;8.35;3.17;;;7.10;97.70;;;;;;5055680;28;20613;-38
2021/03/21 06:25:21;;;;;;;;;;;7.10;97.40;;;;;;5064789;28;20082;-37
2021/03/21 06:28:14;;;;;;;12.05;2.45;;;7.10;97.30;;;;;;5063962;28;19927;-36
2021/03/21 06:31:12;;;;;;;6.85;2.17;;;7.10;97.20;;;;;;5064218;28;20101;-37
2021/03/21 06:33:46;;;;;;;9.10;2.28;;;7.10;97.30;;;;;;5063940;28;20542;-40
2021/03/21 06:36:31;;;;;;;9.80;2.35;;;7.10;97.70;;;;;;5063883;28;20040;-39
2021/03/21 06:39:28;;;;;;;7.70;1.98;;;7.10;97.60;;;;;;5053622;28;20033;-38
2021/03/21 06:42:16;;;;;;;9.02;2.30;;;7.00;97.80;;;;;;5064135;28;20111;-39
2021/03/21 06:45:03;;;;;;;11.48;2.17;;;7.00;97.80;;;;;;5044232;28;20123;-39
2021/03/21 06:47:35;;;;;;;8.13;1.63;;;7.00;97.90;;;;;;5064225;28;20474;-37
2021/03/21 06:50:25;;;;;;;4.70;1.20;;;7.00;97.70;;;;;;5064493;28;20067;-36
2021/03/21 06:53:23;;;;;;;7.55;1.85;;;7.10;97.70;;;;;;5063839;28;20028;-38
2021/03/21 06:56:08;;;;;;;7.75;1.80;;;7.10;97.50;;;;;;5043885;28;20041;-39
2021/03/21 06:59:04;;;;;;;9.13;2.05;;;7.10;97.40;;;;;;5061144;28;20032;-37
2021/03/21 07:01:40;;;;;;;9.27;1.70;;;7.10;97.30;;;;;;5063643;28;20037;-36
2021/03/21 07:04:25;;;;;;;8.93;1.90;;;7.10;97.00;;;;;;5063704;28;20048;-38
2021/03/21 07:07:44;;;;;;;8.45;1.55;;;7.10;97.00;;;;;;5063445;28;20436;-39
2021/03/21 07:10:31;;;;;;;8.60;1.70;;;7.20;96.80;;;;;;5054945;28;20551;-37
2021/03/21 07:13:08;;;;;;;9.02;1.63;;;7.10;96.20;;;;;;5064115;28;20025;-39
2021/03/21 07:15:49;;;;;;;5.00;1.30;;;7.20;96.30;;;;;;5063648;28;20128;-37
2021/03/21 07:18:39;;;;;;;8.38;1.27;;;7.20;96.20;;;;;;5063862;28;20268;-38
2021/03/21 07:21:23;;;;;;;7.22;1.52;;;7.20;96.00;;;;;;5063949;28;20033;-39
2021/03/21 07:24:30;;;;;;;8.00;1.48;;;7.30;96.00;;;;;;5063547;28;20060;-38
2021/03/21 07:27:16;;;;;;;10.13;1.70;;;7.40;95.80;;;;;;5043619;28;20071;-36
2021/03/21 07:29:42;;;;;;;6.82;1.88;;;7.40;95.60;;;;;;5061403;28;20077;-39
2021/03/21 07:32:40;;;;;;;4.95;1.70;;;7.40;95.60;;;;;;5063969;28;20054;-39
2021/03/21 07:35:16;;;;;;;8.52;1.77;;;7.40;95.70;;;;;;5066225;28;20021;-39
2021/03/21 07:38:14;;;;;;;8.48;1.50;;;7.50;95.20;;;;;;5067254;28;20048;-38
2021/03/21 07:41:07;;;;;;;12.57;1.95;;;7.60;95.10;;;;;;5064410;28;20033;-37
2021/03/21 07:44:05;;;;;;;15.25;2.08;;;7.60;94.50;;;;;;5066697;28;20060;-36
2021/03/21 07:46:47;;;;;;;9.55;2.25;;;7.70;93.90;;;;;;5050029;28;20140;-40
2021/03/21 07:49:49;;;;;;;12.83;1.97;;;7.70;93.60;;;;;;5066505;28;20071;-39
2021/03/21 07:52:22;;;;;;;8.32;1.60;;;7.80;93.20;;;;;;5067547;28;20028;-39
2021/03/21 07:55:01;;;;;;;10.82;1.70;;;7.90;93.30;;;;;;5066886;28;20107;-39
2021/03/21 07:57:51;;;;;;;14.88;2.30;;;7.90;92.30;;;;;;5066518;28;20129;-39
2021/03/21 08:00:17;;;;;;;10.75;2.00;;;8.00;92.20;;;;;;5066391;28;20618;-39
2021/03/21 08:02:43;;;;;;;8.88;1.90;;;8.00;92.20;;;;;;5066392;28;20024;-39
2021/03/21 08:05:16;;;;;;;9.90;2.03;;;8.10;91.60;;;;;;5066574;28;20360;-39
2021/03/21 08:07:43;;;;;;;;;;;8.10;92.00;;;;;;5067192;28;20044;-38
2021/03/21 08:10:33;;;;;;;12.73;2.40;;;8.20;91.80;;;;;;5064146;28;20053;-37
2021/03/21 08:13:17;;;;;;;9.93;2.38;;;8.20;91.50;;;;;;5065052;28;20472;-39
2021/03/21 08:15:43;;;;;;;10.63;2.20;;;8.20;91.80;;;;;;5065623;28;20384;-38
2021/03/21 08:18:15;;;;;;;11.68;1.95;;;8.30;91.50;;;;;;5065296;28;20039;-37
2021/03/21 08:20:55;;;;;;;10.47;2.13;;;8.30;91.10;;;;;;5061115;28;20028;-35
2021/03/21 08:23:42;;;;;;;12.13;2.45;;;8.20;91.10;;;;;;5066143;28;20278;-39
2021/03/21 08:26:13;;;;;;;14.23;3.40;;;8.30;91.20;;;;;;5065254;28;20053;-39
2021/03/21 08:29:05;;;;;;;15.20;2.72;;;8.40;91.50;;;;;;5065706;28;20158;-39
2021/03/21 08:31:37;;;;;;;9.43;2.20;;;8.50;91.10;;;;;;5059605;28;20051;-39
2021/03/21 08:34:26;;;;;;;;;;;8.50;90.70;;;;;;5046149;28;20043;-34
2021/03/21 08:36:52;;;;;;;18.27;3.15;;;8.50;90.70;;;;;;5062532;28;19936;-39
2021/03/21 08:39:40;;;;;;;16.35;2.97;;;8.50;90.50;;;;;;5064939;28;20275;-38
2021/03/21 08:42:25;;;;;;;17.25;3.53;;;8.50;90.70;;;;;;5065155;28;20391;-38
2021/03/21 08:44:51;;;;;;;19.98;3.35;;;8.50;90.50;;;;;;5064118;28;20093;-37
2021/03/21 08:47:22;;;;;;;19.17;4.00;;;8.50;90.20;;;;;;5064235;28;20082;-39
2021/03/21 08:49:51;;;;;;;22.92;3.30;;;8.50;90.10;;;;;;5065205;28;20063;-37
2021/03/21 08:52:32;;;;;;;18.88;3.30;;;8.60;89.00;;;;;;5063862;28;20044;-36
2021/03/21 08:55:05;;;;;;;33.53;5.10;;;8.60;88.30;;;;;;5065689;28;20055;-40
2021/03/21 08:57:33;;;;;;;19.60;3.75;;;8.70;86.90;;;;;;5064083;28;20564;-39
2021/03/21 09:00:36;;;;;;;26.90;4.18;;;8.70;85.90;;;;;;5065207;28;20023;-40
2021/03/21 09:03:29;;;;;;;19.38;3.75;;;8.70;85.50;;;;;;5064985;28;20047;-38
2021/03/21 09:05:58;;;;;;;25.63;4.97;;;8.60;85.90;;;;;;5064044;28;20033;-40
2021/03/21 09:08:26;;;;;;;29.13;4.00;;;8.60;86.40;;;;;;5063868;28;20048;-39
2021/03/21 09:10:59;;;;;;;18.95;4.07;;;8.60;86.50;;;;;;5064908;28;20112;-38
2021/03/21 09:13:27;;;;;;;25.63;4.20;;;8.50;86.30;;;;;;5063286;28;20040;-39
2021/03/21 09:16:04;;;;;;;23.73;4.07;;;8.50;86.40;;;;;;5064128;28;20032;-39
2021/03/21 09:18:41;;;;;;;25.42;4.43;;;8.50;87.30;;;;;;5064544;28;20078;-39
2021/03/21 09:21:26;;;;;;;20.55;4.15;;;8.60;87.80;;;;;;5063631;28;20162;-39
2021/03/21 09:23:57;;;;;;;21.13;4.70;;;8.60;87.00;;;;;;5064186;28;20623;-39
2021/03/21 09:26:23;;;;;;;21.83;4.63;;;8.70;86.60;;;;;;5044566;28;20087;-39
2021/03/21 09:28:55;;;;;;;23.17;4.45;;;8.80;85.00;;;;;;5063120;28;20591;-38
2021/03/21 09:31:21;;;;;;;28.98;5.35;;;8.80;83.50;;;;;;5064201;28;20111;-37
2021/03/21 09:33:55;;;;;;;29.67;4.50;;;8.90;84.00;;;;;;5063703;28;20031;-37
2021/03/21 09:36:28;;;;;;;20.13;5.45;;;8.90;84.20;;;;;;5063444;28;20036;-36
2021/03/21 09:39:03;;;;;;;29.20;4.65;;;9.00;83.80;;;;;;5064292;28;20029;-39
2021/03/21 09:41:29;;;;;;;27.20;4.93;;;9.00;83.50;;;;;;5062750;28;20017;-39
2021/03/21 09:44:04;;;;;;;24.27;4.85;;;9.10;83.10;;;;;;5064115;28;20020;-39
2021/03/21 09:46:51;;;;;;;27.60;5.05;;;9.10;82.10;;;;;;5044387;28;20038;-39
2021/03/21 09:49:46;;;;;;;22.23;4.38;;;9.10;81.60;;;;;;5061525;28;20074;-39
2021/03/21 09:52:37;;;;;;;21.50;4.20;;;9.10;80.50;;;;;;5063738;28;20037;-39
2021/03/21 09:55:05;;;;;;;30.27;6.57;;;9.00;80.40;;;;;;5060779;28;20044;-40
2021/03/21 09:57:43;;;;;;;30.42;4.65;;;9.00;80.90;;;;;;5063237;28;20140;-37
2021/03/21 10:00:13;;;;;;;24.10;4.57;;;8.90;81.50;;;;;;5064486;28;20060;-39
2021/03/21 10:02:50;;;;;;;26.17;5.55;;;8.90;80.40;;;;;;5064232;28;20088;-40
2021/03/21 10:05:38;;;;;;;27.60;5.85;;;9.00;80.50;;;;;;5058660;28;20492;-41
2021/03/21 10:08:44;;;;;;;27.92;5.18;;;9.00;78.20;;;;;;5053651;28;20094;-37
2021/03/21 10:11:21;;;;;;;27.77;5.28;;;9.10;77.10;;;;;;5060586;28;20032;-39
2021/03/21 10:13:47;;;;;;;29.60;5.03;;;9.00;76.90;;;;;;5061313;28;20162;-38
2021/03/21 10:16:16;;;;;;;31.70;5.88;;;9.10;76.90;;;;;;5064126;28;20183;-36
2021/03/21 10:18:49;;;;;;;31.23;5.60;;;9.10;76.40;;;;;;5064342;28;20139;-39
2021/03/21 10:21:24;;;;;;;21.02;4.35;;;9.10;76.50;;;;;;5064057;28;20028;-35
2021/03/21 10:23:59;;;;;;;29.55;6.13;;;9.10;76.50;;;;;;5064039;28;20882;-36
2021/03/21 10:26:32;;;;;;;25.70;6.00;;;9.10;77.00;;;;;;5064061;28;20068;-38
2021/03/21 10:29:19;;;;;;;33.20;5.50;;;9.20;76.00;;;;;;5064035;28;20028;-38
2021/03/21 10:31:45;;;;;;;18.50;3.70;;;9.20;76.40;;;;;;5063665;28;20079;-39
2021/03/21 10:34:10;;;;;;;19.60;4.18;;;9.20;77.20;;;;;;5063203;28;20108;-37
2021/03/21 10:36:42;;;;;;;24.25;4.60;;;9.20;77.30;;;;;;5063740;28;20024;-38
2021/03/21 10:39:24;;;;;;;29.17;4.53;;;9.20;77.20;;;;;;5063454;28;20428;-36
2021/03/21 10:42:00;;;;;;;26.40;4.85;;;9.10;77.50;;;;;;5063957;28;20025;-38
2021/03/21 10:44:32;;;;;;;24.25;4.53;;;9.10;77.40;;;;;;5063171;28;20060;-38
2021/03/21 10:47:10;;;;;;;19.38;3.90;;;9.10;77.70;;;;;;5063747;28;20086;-37
2021/03/21 10:49:56;;;;;;;19.83;4.05;;;9.20;78.00;;;;;;5061152;28;20032;-39
2021/03/21 10:52:34;;;;;;;26.35;5.05;;;9.30;77.50;;;;;;5060691;28;20424;-39
2021/03/21 10:55:14;;;;;;;22.83;4.60;;;9.40;76.80;;;;;;5061862;28;20103;-39
2021/03/21 10:57:40;;;;;;;22.20;4.75;;;9.50;77.20;;;;;;5052956;28;20052;-39
2021/03/21 11:00:17;;;;;;;26.13;4.90;;;9.50;75.50;;;;;;5061827;28;20868;-37
2021/03/21 11:03:15;;;;;;;21.55;4.05;;;9.50;76.20;;;;;;5051777;28;20036;-38
2021/03/21 11:05:43;;;;;;;31.88;4.97;;;9.60;75.40;;;;;;5062008;28;20177;-36
2021/03/21 11:08:29;;;;;;;22.77;4.65;;;9.50;76.00;;;;;;5063817;28;20341;-38
2021/03/21 11:10:58;;;;;;;25.52;4.47;;;9.50;75.90;;;;;;5067699;28;20043;-38
2021/03/21 11:13:33;;;;;;;17.20;4.55;;;9.50;76.40;;;;;;5054308;28;20033;-37
2021/03/21 11:16:18;;;;;;;21.55;4.47;;;9.50;77.50;;;;;;5067112;28;20024;-38
2021/03/21 11:18:49;;;;;;;19.40;5.05;;;9.60;76.80;;;;;;5064968;28;20527;-37
2021/03/21 11:21:14;;;;;;;29.80;4.53;;;9.60;77.20;;;;;;5058722;28;20028;-37
2021/03/21 11:24:01;;;;;;;18.48;4.43;;;9.60;75.60;;;;;;5066495;28;20432;-39
2021/03/21 11:26:27;;;;;;;20.70;4.75;;;9.60;75.50;;;;;;5066676;28;20032;-38
2021/03/21 11:29:13;;;;;;;29.52;5.72;;;9.60;75.90;;;;;;5065796;28;20048;-38
2021/03/21 11:31:48;;;;;;;28.60;4.97;;;9.50;76.30;;;;;;5058871;28;20119;-39
2021/03/21 11:34:28;;;;;;;28.98;5.53;;;9.50;76.40;;;;;;5067830;28;20028;-38
2021/03/21 11:37:13;;;;;;;22.77;4.75;;;9.60;76.10;;;;;;5060850;28;20028;-36
2021/03/21 11:39:51;;;;;;;21.42;3.97;;;9.60;74.50;;;;;;5066488;28;20133;-38
2021/03/21 11:42:24;;;;;;;20.73;4.55;;;9.60;73.90;;;;;;5066456;28;20028;-37
2021/03/21 11:45:14;;;;;;;23.15;4.82;;;9.60;74.00;;;;;;5066784;28;20036;-37
2021/03/21 11:47:48;;;;;;;19.55;4.03;;;9.60;75.00;;;;;;5065698;28;20708;-37
2021/03/21 11:50:29;;;;;;;19.70;4.07;;;9.70;74.90;;;;;;5054722;28;20051;-36
2021/03/21 11:52:57;;;;;;;24.42;4.10;;;9.80;73.80;;;;;;5060415;28;20032;-39
2021/03/21 11:55:29;;;;;;;27.88;5.05;;;9.90;73.60;;;;;;5063497;28;20468;-37
2021/03/21 11:58:14;;;;;;;21.27;4.18;;;9.90;73.30;;;;;;5066030;28;20047;-38
2021/03/21 12:00:46;;;;;;;22.30;4.65;;;9.80;73.80;;;;;;5066898;28;20464;-38
2021/03/21 12:03:16;;;;;;;25.87;4.30;;;9.80;74.70;;;;;;5066139;28;20444;-38
2021/03/21 12:05:45;;;;;;;29.00;5.10;;;9.90;74.80;;;;;;5066644;28;20844;-37
2021/03/21 12:08:13;;;;;;;25.17;5.05;;;9.90;74.30;;;;;;5066611;28;20071;-40
2021/03/21 12:10:42;;;;;;;21.13;4.40;;;9.90;74.30;;;;;;5066402;28;20024;-39
2021/03/21 12:13:30;;;;;;;29.42;5.60;;;9.90;73.50;;;;;;5064567;28;20032;-37
2021/03/21 12:15:56;;;;;;;26.88;5.05;;;10.00;73.20;;;;;;5066325;28;20364;-38
2021/03/21 12:18:24;;;;;;;26.15;5.20;;;9.90;73.00;;;;;;5066522;28;20915;-39
2021/03/21 12:20:54;;;;;;;24.58;4.75;;;9.80;73.70;;;;;;5065242;28;20024;-37
2021/03/21 12:23:51;;;;;;;34.20;5.47;;;9.80;72.60;;;;;;5065844;28;20063;-39
2021/03/21 12:26:21;;;;;;;27.00;5.00;;;9.70;73.40;;;;;;5066527;28;20063;-37
2021/03/21 12:28:56;;;;;;;19.95;4.90;;;9.60;73.60;;;;;;5066116;28;20036;-39
2021/03/21 12:31:33;;;;;;;21.75;4.35;;;9.60;74.40;;;;;;5065477;28;20089;-40
2021/03/21 12:34:19;;;;;;;31.60;5.20;;;9.60;74.40;;;;;;5066160;28;20027;-38
2021/03/21 12:37:02;;;;;;;24.75;5.88;;;9.60;74.50;;;;;;5066263;28;20040;-37
2021/03/21 12:39:31;;;;;;;26.35;4.82;;;9.70;74.50;;;;;;5065584;28;20020;-40
2021/03/21 12:41:57;;;;;;;26.10;5.53;;;9.70;74.30;;;;;;5066249;28;20450;-40
2021/03/21 12:44:31;;;;;;;21.55;5.22;;;9.60;74.30;;;;;;5064952;28;20024;-36
2021/03/21 12:47:15;;;;;;;25.58;4.82;;;9.60;74.60;;;;;;5066376;28;20056;-36
2021/03/21 12:49:53;;;;;;;31.33;5.22;;;9.60;73.70;;;;;;5065659;28;20059;-39
2021/03/21 12:52:32;;;;;;;21.67;4.90;;;9.50;74.50;;;;;;5065164;28;20115;-39
2021/03/21 12:54:59;;;;;;;31.25;4.72;;;9.50;74.50;;;;;;5066162;28;20094;-40
2021/03/21 12:57:24;;;;;;;19.38;4.68;;;9.40;73.60;;;;;;5065369;28;20549;-40
2021/03/21 12:59:52;;;;;;;26.10;5.25;;;9.30;74.40;;;;;;5064832;28;20017;-37
2021/03/21 13:02:26;;;;;;;23.05;4.68;;;9.30;74.40;;;;;;5065771;28;20036;-40
2021/03/21 13:04:52;;;;;;;28.77;5.30;;;9.40;74.50;;;;;;5064701;28;20101;-39
2021/03/21 13:07:22;;;;;;;33.45;5.72;;;9.50;72.50;;;;;;5063437;28;20033;-38
2021/03/21 13:09:55;;;;;;;24.00;4.57;;;9.50;73.20;;;;;;5065171;28;20021;-39
2021/03/21 13:12:22;;;;;;;22.45;4.55;;;9.60;73.60;;;;;;5064805;28;20135;-36
2021/03/21 13:14:48;;;;;;;21.00;4.20;;;9.60;73.90;;;;;;5064670;28;20380;-36
2021/03/21 13:17:14;;;;;;;25.63;5.60;;;9.60;74.00;;;;;;5065230;28;20024;-35
2021/03/21 13:19:43;;;;;;;29.17;5.22;;;9.60;74.20;;;;;;5064332;28;20025;-38
2021/03/21 13:22:09;;;;;;;28.85;5.45;;;9.50;74.40;;;;;;5064434;28;20070;-36
2021/03/21 13:24:35;;;;;;;35.30;6.45;;;9.50;74.50;;;;;;5064504;28;20127;-37
2021/03/21 13:27:03;;;;;;;23.40;4.68;;;9.40;74.50;;;;;;5064723;28;20047;-37
2021/03/21 13:29:29;;;;;;;27.05;5.57;;;9.40;75.80;;;;;;5064476;28;20041;-38
2021/03/21 13:31:54;;;;;;;26.33;5.40;;;9.30;75.60;;;;;;5064588;28;20533;-37
2021/03/21 13:34:21;;;;;;;26.88;5.05;;;9.40;75.90;;;;;;5064925;28;20058;-32
2021/03/21 13:36:46;;;;;;;25.05;5.30;;;9.40;75.50;;;;;;5064433;28;20390;-39
2021/03/21 13:39:12;;;;;;;19.52;5.18;;;9.50;75.40;;;;;;5064741;28;20036;-38
2021/03/21 13:41:38;;;;;;;25.08;5.18;;;9.50;75.70;;;;;;5064207;28;20033;-37
2021/03/21 13:44:05;;;;;;;24.63;5.00;;;9.50;75.90;;;;;;5064355;28;20020;-38